Time;durP1;ratioP1;P1;durP2;ratioP2;P2;SDS_P1;SDS_P2;PMS_P1;PMS_P2;Temp;Humidity;BMP_temperature;BMP_pressure;BME280_temperature;BME280_humidity;BME280_pressure;Samples;Min_cycle;Max_cycle;Signal;HPM_P1;HPM_P2
2023/07/14 00:01:39;;;;;;;;;29.75;22.75;;;;;23.48;36.34;101321.63;5060739;28;45339;-68
2023/07/14 00:04:17;;;;;;;;;27.25;25.00;;;;;23.47;36.42;101327.06;5043221;28;45230;-68
2023/07/14 00:06:44;;;;;;;;;24.50;22.25;;;;;23.47;36.42;101325.25;5059996;28;45450;-69
2023/07/14 00:09:20;;;;;;;;;29.75;24.25;;;;;23.46;36.55;101322.66;5067847;28;45342;-68
2023/07/14 00:11:46;;;;;;;;;23.75;22.00;;;;;23.42;36.44;101307.72;5060683;28;47160;-69
2023/07/14 00:14:12;;;;;;;;;30.25;24.25;;;;;23.44;36.36;101309.34;5081597;28;45318;-68
2023/07/14 00:16:37;;;;;;;;;24.75;22.25;;;;;23.43;36.36;101309.44;5079529;28;45298;-69
2023/07/14 00:19:11;;;;;;;;;27.50;23.75;;;;;23.40;36.29;101301.59;5081629;28;45217;-69
2023/07/14 00:21:37;;;;;;;;;28.75;25.00;;;;;23.37;37.00;101308.84;5080934;28;45392;-69
2023/07/14 00:24:10;;;;;;;;;27.50;24.75;;;;;23.36;36.68;101295.53;5081317;28;45266;-68
2023/07/14 00:26:35;;;;;;;;;24.75;21.50;;;;;23.35;36.87;101294.66;5081353;28;45430;-68
2023/07/14 00:29:16;;;;;;;;;26.75;22.00;;;;;23.32;36.70;101292.19;5081267;28;45302;-68
2023/07/14 00:31:42;;;;;;;;;23.50;22.50;;;;;23.33;36.52;101296.59;5081156;28;45401;-68
2023/07/14 00:34:09;;;;;;;;;22.75;22.25;;;;;23.32;36.63;101299.34;5081142;28;45415;-68
2023/07/14 00:36:34;;;;;;;;;24.50;22.00;;;;;23.25;36.55;101296.16;5079631;28;45379;-68
2023/07/14 00:38:59;;;;;;;;;23.75;20.00;;;;;23.23;36.76;101290.03;5081096;28;45450;-68
2023/07/14 00:41:25;;;;;;;;;23.00;20.25;;;;;23.27;36.80;101301.44;5079577;28;47013;-68
2023/07/14 00:43:51;;;;;;;;;13.50;13.50;;;;;23.27;36.93;101298.75;5079822;28;45375;-68
2023/07/14 00:46:23;;;;;;;;;19.75;16.50;;;;;23.26;36.88;101297.03;5079839;28;45328;-68
2023/07/14 00:48:51;;;;;;;;;17.25;15.25;;;;;23.24;36.77;101297.13;5080987;28;45456;-68
2023/07/14 00:51:18;;;;;;;;;17.75;15.25;;;;;23.19;36.94;101283.13;5080504;28;45389;-68
2023/07/14 00:53:44;;;;;;;;;17.00;15.25;;;;;23.23;37.20;101292.69;5079598;28;46171;-68
2023/07/14 00:56:12;;;;;;;;;16.50;15.50;;;;;23.21;37.14;101282.06;5080532;28;45473;-69
2023/07/14 00:58:47;;;;;;;;;23.25;17.00;;;;;23.18;37.04;101281.38;5079515;28;45561;-68
2023/07/14 01:01:21;;;;;;;;;18.75;15.50;;;;;23.17;37.05;101277.00;5079207;28;46201;-68
2023/07/14 01:03:48;;;;;;;;;21.75;19.00;;;;;23.17;37.04;101277.00;5080622;28;45227;-68
2023/07/14 01:06:21;;;;;;;;;21.50;18.00;;;;;23.16;36.88;101273.44;5079421;28;45245;-68
2023/07/14 01:09:01;;;;;;;;;18.75;16.25;;;;;23.15;37.13;101276.19;5078118;28;45401;-68
2023/07/14 01:11:37;;;;;;;;;22.00;19.50;;;;;23.14;36.90;101263.75;5060266;28;45487;-68
2023/07/14 01:14:07;;;;;;;;;19.00;15.25;;;;;23.10;36.98;101248.81;5079267;28;45261;-68
2023/07/14 01:16:38;;;;;;;;;20.25;19.00;;;;;23.10;37.38;101263.06;5079085;28;45506;-68
2023/07/14 01:19:15;;;;;;;;;17.00;16.75;;;;;23.09;37.44;101260.47;5079401;28;45468;-68
2023/07/14 01:21:47;;;;;;;;;19.50;18.00;;;;;23.08;37.24;101259.63;5078722;28;46429;-68
2023/07/14 01:24:29;;;;;;;;;22.25;19.75;;;;;23.08;37.50;101259.63;5078899;28;45430;-68
2023/07/14 01:27:02;;;;;;;;;13.00;13.00;;;;;23.04;37.62;101256.25;5080484;28;45472;-68
2023/07/14 01:29:28;;;;;;;;;18.50;14.50;;;;;23.05;37.81;101255.28;5080316;28;45304;-68
2023/07/14 01:31:55;;;;;;;;;18.50;18.00;;;;;23.02;37.40;101250.09;5080270;28;46618;-68
2023/07/14 01:34:21;;;;;;;;;18.00;17.25;;;;;23.02;37.63;101250.09;5080165;28;45272;-68
2023/07/14 01:36:48;;;;;;;;;25.25;19.00;;;;;23.01;37.74;101237.66;5079974;28;45408;-68
2023/07/14 01:39:14;;;;;;;;;19.00;17.50;;;;;23.00;37.81;101235.06;5080409;28;45218;-68
2023/07/14 01:41:39;;;;;;;;;19.75;19.50;;;;;22.99;37.76;101234.22;5080029;28;45223;-68
2023/07/14 01:44:07;;;;;;;;;16.00;14.50;;;;;22.94;37.77;101227.38;5079187;27;45342;-68
2023/07/14 01:46:32;;;;;;;;;19.50;18.25;;;;;22.96;37.81;101234.38;5080301;28;45346;-68
2023/07/14 01:49:09;;;;;;;;;16.75;16.75;;;;;22.91;37.90;101220.41;5078865;28;45516;-68
2023/07/14 01:51:39;;;;;;;;;15.00;14.75;;;;;22.93;37.88;101226.53;5080028;28;46085;-68
2023/07/14 01:54:15;;;;;;;;;18.75;17.00;;;;;22.93;37.89;101228.34;5078653;28;45280;-68
2023/07/14 01:56:42;;;;;;;;;21.25;17.00;;;;;22.91;37.96;101227.59;5079940;28;45233;-68
2023/07/14 01:59:15;;;;;;;;;23.00;15.50;;;;;22.87;38.06;101219.72;5079824;28;45461;-68
2023/07/14 02:01:44;;;;;;;;;17.50;15.75;;;;;22.87;38.36;101219.72;5079936;28;46434;-68
2023/07/14 02:04:21;;;;;;;;;20.50;16.00;;;;;22.84;37.91;101213.66;5079694;28;45423;-68
2023/07/14 02:06:47;;;;;;;;;17.25;16.25;;;;;22.84;38.09;101208.31;5079809;28;45465;-68
2023/07/14 02:09:17;;;;;;;;;17.75;16.25;;;;;22.81;38.06;101206.66;5073667;28;45775;-69
2023/07/14 02:11:47;;;;;;;;;13.75;13.50;;;;;22.80;38.02;101212.97;5059841;28;45577;-68
2023/07/14 02:14:17;;;;;;;;;16.75;16.75;;;;;22.79;38.20;101210.41;5078760;28;45285;-68
2023/07/14 02:16:45;;;;;;;;;15.50;13.75;;;;;22.78;38.25;101208.66;5079737;28;45397;-68
2023/07/14 02:19:24;;;;;;;;;14.00;11.25;;;;;22.75;38.24;101200.81;5079788;27;45463;-69
2023/07/14 02:21:50;;;;;;;;;17.75;14.25;;;;;22.73;38.33;101208.97;5079095;28;47063;-68
2023/07/14 02:24:20;;;;;;;;;12.00;11.75;;;;;22.72;38.24;101208.06;5079786;28;45242;-69
2023/07/14 02:26:51;;;;;;;;;11.50;11.50;;;;;22.69;38.47;101208.25;5082787;28;45316;-68
2023/07/14 02:29:16;;;;;;;;;12.00;12.00;;;;;22.68;38.31;101208.38;5078534;28;45458;-68
2023/07/14 02:32:04;;;;;;;;;13.75;11.25;;;;;22.67;38.56;101212.84;5062731;28;46249;-68
2023/07/14 02:34:37;;;;;;;;;15.00;12.75;;;;;22.66;38.72;101211.09;5061388;28;45357;-68
2023/07/14 02:37:04;;;;;;;;;24.50;20.50;;;;;22.63;38.42;101213.09;5062761;28;45378;-68
2023/07/14 02:39:39;;;;;;;;;37.25;31.25;;;;;22.62;38.44;101206.88;5061365;28;45715;-68
2023/07/14 02:42:05;;;;;;;;;33.00;30.75;;;;;22.58;38.44;101205.34;5062513;28;45331;-68
2023/07/14 02:44:33;;;;;;;;;37.50;31.50;;;;;22.54;38.43;101196.63;5062603;28;45441;-68
2023/07/14 02:47:05;;;;;;;;;36.00;32.50;;;;;22.56;38.63;101207.22;5061694;28;45395;-68
2023/07/14 02:49:31;;;;;;;;;30.25;28.75;;;;;22.53;38.61;101210.97;5062591;28;45379;-68
2023/07/14 02:51:56;;;;;;;;;26.75;24.00;;;;;22.52;38.56;101200.34;5062420;28;45462;-68
2023/07/14 02:54:23;;;;;;;;;24.00;22.75;;;;;22.51;38.54;101201.28;5062360;28;47813;-68
2023/07/14 02:56:48;;;;;;;;;23.25;19.75;;;;;22.48;38.81;101196.13;5062377;28;45231;-68
2023/07/14 02:59:16;;;;;;;;;24.50;20.75;;;;;22.47;38.22;101191.72;5062326;28;45246;-68
2023/07/14 03:01:42;;;;;;;;;24.00;18.75;;;;;22.47;38.90;101194.38;5061103;28;46475;-68
2023/07/14 03:04:07;;;;;;;;;20.25;16.75;;;;;22.43;38.83;101188.34;5061869;28;53491;-68
2023/07/14 03:06:32;;;;;;;;;21.50;15.75;;;;;22.42;39.12;101189.28;5061236;28;45453;-69
2023/07/14 03:08:58;;;;;;;;;17.75;16.25;;;;;22.33;39.08;101181.75;5068765;28;45486;-68
2023/07/14 03:11:23;;;;;;;;;15.75;14.75;;;;;22.36;38.94;101195.84;5062161;28;45422;-69
2023/07/14 03:13:49;;;;;;;;;17.75;15.25;;;;;22.35;38.94;101190.53;5080424;28;45504;-68
2023/07/14 03:16:15;;;;;;;;;17.00;13.50;;;;;22.35;38.39;101185.19;5082518;28;45544;-70
2023/07/14 03:18:41;;;;;;;;;20.25;17.75;;;;;22.33;38.46;101179.94;5081289;28;45357;-68
2023/07/14 03:21:09;;;;;;;;;15.50;15.00;;;;;22.31;39.09;101172.94;5080797;27;47193;-68
2023/07/14 03:23:34;;;;;;;;;13.25;11.00;;;;;22.29;38.96;101170.34;5082377;28;45359;-68
2023/07/14 03:26:03;;;;;;;;;16.00;13.00;;;;;22.27;38.78;101161.53;5082498;28;45468;-68
2023/07/14 03:28:29;;;;;;;;;13.50;11.25;;;;;22.26;38.79;101167.00;5082226;28;45334;-68
2023/07/14 03:30:55;;;;;;;;;9.00;8.75;;;;;22.22;38.90;101169.81;5082296;28;46320;-68
2023/07/14 03:33:20;;;;;;;;;12.25;11.25;;;;;22.17;38.75;101157.66;5081965;28;45397;-68
2023/07/14 03:35:46;;;;;;;;;14.00;12.25;;;;;22.17;39.09;101163.00;5082142;28;45211;-68
2023/07/14 03:38:11;;;;;;;;;12.50;8.25;;;;;22.13;39.09;101165.00;5081093;28;45425;-68
2023/07/14 03:40:36;;;;;;;;;9.50;9.25;;;;;22.14;38.86;101168.53;5080741;28;47157;-68
2023/07/14 03:43:04;;;;;;;;;15.75;12.00;;;;;22.09;39.24;101168.81;5081966;28;45369;-68
2023/07/14 03:45:34;;;;;;;;;13.00;9.50;;;;;22.08;39.14;101170.59;5082268;28;45279;-68
2023/07/14 03:48:00;;;;;;;;;10.75;10.75;;;;;22.03;39.25;101148.59;5081874;28;45264;-68
2023/07/14 03:50:25;;;;;;;;;10.25;10.25;;;;;22.01;39.15;101155.84;5080348;28;47194;-68
2023/07/14 03:52:52;;;;;;;;;10.50;10.50;;;;;22.02;39.43;101159.38;5081909;28;45271;-68
2023/07/14 03:55:18;;;;;;;;;10.25;10.25;;;;;22.00;39.22;101154.13;5082081;28;45451;-68
2023/07/14 03:57:44;;;;;;;;;8.25;8.00;;;;;21.95;39.18;101149.97;5081856;28;45448;-68
2023/07/14 04:00:12;;;;;;;;;9.25;8.25;;;;;21.95;39.59;101145.50;5081794;28;45318;-68
2023/07/14 04:02:39;;;;;;;;;9.00;8.75;;;;;21.95;39.60;101139.25;5080798;28;45624;-68
2023/07/14 04:05:07;;;;;;;;;9.25;7.00;;;;;21.92;39.49;101148.31;5081779;28;45325;-68
2023/07/14 04:07:33;;;;;;;;;9.00;7.00;;;;;21.88;39.69;101147.63;5081840;28;45428;-68
2023/07/14 04:09:58;;;;;;;;;8.50;8.25;;;;;21.86;39.59;101146.88;5067867;28;45240;-68
2023/07/14 04:12:23;;;;;;;;;9.75;9.75;;;;;21.86;39.53;101149.53;5067500;28;45293;-68
2023/07/14 04:14:49;;;;;;;;;7.00;6.00;;;;;21.85;39.42;101142.47;5067276;28;45277;-68
2023/07/14 04:17:14;;;;;;;;;9.00;7.75;;;;;21.83;39.82;101140.81;5081210;28;45264;-68
2023/07/14 04:19:39;;;;;;;;;11.25;9.25;;;;;21.83;39.78;101146.16;5081616;28;46205;-68
2023/07/14 04:22:04;;;;;;;;;10.00;8.25;;;;;21.80;39.60;101135.63;5080907;28;51939;-68
2023/07/14 04:24:30;;;;;;;;;7.00;7.00;;;;;21.81;39.64;101137.34;5081683;28;45246;-68
2023/07/14 04:26:55;;;;;;;;;11.00;7.50;;;;;21.78;39.53;101134.88;5081304;28;45238;-68
2023/07/14 04:29:20;;;;;;;;;10.00;7.75;;;;;21.77;39.52;101135.81;5081356;28;45397;-68
2023/07/14 04:31:46;;;;;;;;;7.00;7.00;;;;;21.73;39.97;101122.59;5080175;27;45289;-68
2023/07/14 04:34:11;;;;;;;;;8.25;6.25;;;;;21.66;40.20;101112.31;5080145;28;45345;-68
2023/07/14 04:36:37;;;;;;;;;11.50;10.00;;;;;21.77;39.81;101130.47;5081009;28;45250;-68
2023/07/14 04:39:07;;;;;;;;;8.50;7.75;;;;;21.72;39.80;101123.56;5081201;28;45401;-68
2023/07/14 04:41:35;;;;;;;;;8.75;8.25;;;;;21.75;40.00;101125.19;5080999;28;45254;-68
2023/07/14 04:44:13;;;;;;;;;9.00;8.00;;;;;21.76;39.90;101134.97;5081337;28;45176;-68
2023/07/14 04:46:40;;;;;;;;;11.25;10.00;;;;;21.75;40.27;101123.38;5081049;28;45434;-68
2023/07/14 04:49:06;;;;;;;;;10.75;9.00;;;;;21.76;40.14;101113.56;5080715;28;46324;-68
2023/07/14 04:51:33;;;;;;;;;11.00;11.00;;;;;21.76;40.34;101121.59;5079568;28;45366;-68
2023/07/14 04:53:58;;;;;;;;;10.00;10.00;;;;;21.74;39.77;101105.59;5081254;27;45300;-68
2023/07/14 04:56:24;;;;;;;;;6.50;6.00;;;;;21.76;40.04;101105.53;5080446;28;51519;-68
2023/07/14 04:58:49;;;;;;;;;7.50;6.50;;;;;21.75;39.81;101095.78;5080865;28;45532;-68
2023/07/14 05:01:15;;;;;;;;;7.25;7.25;;;;;21.75;40.04;101085.94;5080963;28;45216;-68
2023/07/14 05:03:40;;;;;;;;;8.00;7.00;;;;;21.73;40.42;101087.81;5079641;28;45320;-68
2023/07/14 05:06:05;;;;;;;;;9.00;7.75;;;;;21.75;39.93;101079.75;5080599;28;45451;-68
2023/07/14 05:08:30;;;;;;;;;11.00;8.50;;;;;21.75;40.00;101087.75;5079301;28;45461;-68
2023/07/14 05:10:56;;;;;;;;;5.75;5.50;;;;;21.67;40.12;101074.81;5060443;28;45251;-68
2023/07/14 05:13:21;;;;;;;;;5.50;5.00;;;;;21.74;40.29;101086.88;5075010;28;45300;-68
2023/07/14 05:15:47;;;;;;;;;5.25;5.25;;;;;21.74;40.01;101078.00;5080613;28;45563;-68
2023/07/14 05:18:12;;;;;;;;;8.00;7.00;;;;;21.73;40.40;101069.09;5079281;27;45273;-68
2023/07/14 05:20:39;;;;;;;;;7.00;5.00;;;;;21.74;40.47;101067.31;5080548;28;45227;-68
2023/07/14 05:23:04;;;;;;;;;5.75;5.75;;;;;21.72;40.06;101070.06;5080580;28;45351;-68
2023/07/14 05:25:30;;;;;;;;;5.00;5.00;;;;;21.71;40.54;101054.97;5071899;28;45327;-68
2023/07/14 05:27:55;;;;;;;;;4.50;3.75;;;;;21.75;40.42;101048.50;5069061;28;47147;-68
2023/07/14 05:30:21;;;;;;;;;9.50;6.50;;;;;21.74;40.31;101024.53;5060328;28;45232;-68
2023/07/14 05:32:49;;;;;;;;;6.75;4.25;;;;;21.72;39.96;101003.22;5058961;28;45330;-68
2023/07/14 05:35:17;;;;;;;;;7.00;7.00;;;;;21.75;40.13;101000.34;5059811;28;45536;-68
2023/07/14 05:37:44;;;;;;;;;8.25;6.25;;;;;21.74;40.45;101003.13;5059949;28;45304;-68
2023/07/14 05:40:11;;;;;;;;;6.00;5.25;;;;;21.73;40.14;101023.63;5080276;28;45326;-68
2023/07/14 05:42:38;;;;;;;;;6.75;5.00;;;;;21.71;40.20;101028.22;5080273;28;45506;-68
2023/07/14 05:45:04;;;;;;;;;4.25;4.00;;;;;21.69;40.42;101037.28;5080188;28;45437;-67
2023/07/14 05:47:31;;;;;;;;;7.50;5.75;;;;;21.66;40.33;101038.31;5078737;28;48401;-67
2023/07/14 05:49:56;;;;;;;;;6.75;6.75;;;;;21.68;40.17;101040.91;5080022;28;45310;-68
2023/07/14 05:52:22;;;;;;;;;7.25;4.25;;;;;21.68;40.31;101046.25;5080317;28;45199;-68
2023/07/14 05:54:48;;;;;;;;;4.75;4.25;;;;;21.66;40.19;101040.13;5095801;27;45556;-68
2023/07/14 05:57:14;;;;;;;;;8.75;6.00;;;;;21.65;40.25;101046.44;5079956;28;46099;-68
2023/07/14 05:59:39;;;;;;;;;6.25;5.00;;;;;21.66;40.28;101042.78;5080293;28;45465;-68
2023/07/14 06:02:13;;;;;;;;;7.75;4.75;;;;;21.65;40.34;101038.41;5083761;28;45318;-68
2023/07/14 06:04:38;;;;;;;;;5.00;4.50;;;;;21.65;40.01;101049.13;5083730;28;46500;-68
2023/07/14 06:07:06;;;;;;;;;4.75;1.00;;;;;21.63;39.81;101038.47;5083108;28;45484;-68
2023/07/14 06:09:35;;;;;;;;;4.75;4.25;;;;;21.63;40.11;101009.06;5075034;28;45358;-68
2023/07/14 06:12:04;;;;;;;;;4.25;4.25;;;;;21.62;40.15;101009.16;5066299;28;45459;-68
2023/07/14 06:14:31;;;;;;;;;4.50;2.50;;;;;21.63;39.90;101010.91;5083576;27;45401;-68
2023/07/14 06:16:57;;;;;;;;;8.00;5.00;;;;;21.65;40.21;101030.41;5081272;28;47172;-68
2023/07/14 06:19:22;;;;;;;;;6.75;6.00;;;;;21.62;40.15;101030.56;5082096;28;46269;-68
2023/07/14 06:21:48;;;;;;;;;3.00;3.00;;;;;21.64;40.46;101023.31;5083072;27;45212;-68
2023/07/14 06:24:14;;;;;;;;;5.75;5.75;;;;;21.62;40.47;101004.66;5083307;28;49650;-68
2023/07/14 06:26:39;;;;;;;;;9.25;5.50;;;;;21.62;40.01;101001.16;5083119;28;46480;-68
2023/07/14 06:29:05;;;;;;;;;6.00;6.00;;;;;21.64;39.87;101026.84;5082111;28;45744;-68
2023/07/14 06:31:30;;;;;;;;;6.00;6.00;;;;;21.65;40.01;101033.06;5083411;28;45405;-68
2023/07/14 06:33:55;;;;;;;;;7.00;6.25;;;;;21.66;40.16;101027.63;5083344;28;45243;-68
2023/07/14 06:36:21;;;;;;;;;6.25;3.00;;;;;21.66;39.84;101030.31;5082750;28;46296;-67
2023/07/14 06:38:47;;;;;;;;;7.75;7.00;;;;;21.63;40.20;101014.41;5083213;28;45331;-67
2023/07/14 06:41:12;;;;;;;;;8.75;7.00;;;;;21.61;40.35;101002.09;5081696;28;45336;-67
2023/07/14 06:43:37;;;;;;;;;8.00;7.00;;;;;21.68;40.26;100992.78;5083439;28;45437;-67
2023/07/14 06:46:03;;;;;;;;;7.00;7.00;;;;;21.70;40.32;101010.47;5083101;28;45917;-68
2023/07/14 06:48:29;;;;;;;;;9.50;6.75;;;;;21.66;39.94;101000.88;5083040;28;45314;-67
2023/07/14 06:50:54;;;;;;;;;7.00;4.50;;;;;21.71;40.11;101006.84;5082958;28;45441;-67
2023/07/14 06:53:20;;;;;;;;;7.75;7.25;;;;;21.71;40.55;101001.50;5083050;28;45366;-68
2023/07/14 06:55:46;;;;;;;;;8.00;6.25;;;;;21.70;40.38;100993.56;5082581;28;45448;-67
2023/07/14 06:58:12;;;;;;;;;6.25;4.75;;;;;21.72;40.18;101000.53;5082842;27;45407;-67
2023/07/14 07:00:38;;;;;;;;;7.00;6.75;;;;;21.73;40.48;100993.38;5082987;28;45319;-67
2023/07/14 07:03:04;;;;;;;;;8.50;7.25;;;;;21.72;40.52;100997.88;5082786;28;45165;-67
2023/07/14 07:05:33;;;;;;;;;7.25;6.00;;;;;21.73;39.92;100993.38;5082337;28;45247;-67
2023/07/14 07:07:59;;;;;;;;;5.50;5.25;;;;;21.74;40.52;100990.59;5081307;28;45931;-67
2023/07/14 07:10:24;;;;;;;;;6.50;6.50;;;;;21.77;40.08;100983.38;5065756;27;45359;-67
2023/07/14 07:12:50;;;;;;;;;7.25;6.50;;;;;21.76;40.43;100979.84;5070964;28;45326;-67
2023/07/14 07:15:15;;;;;;;;;6.75;6.75;;;;;21.79;40.06;100970.78;5082402;28;45291;-67
2023/07/14 07:17:41;;;;;;;;;9.75;6.00;;;;;21.84;40.25;100974.03;5081330;28;45935;-67
2023/07/14 07:20:08;;;;;;;;;8.50;5.25;;;;;21.85;40.19;100978.44;5081033;28;45393;-67
2023/07/14 07:22:35;;;;;;;;;4.50;4.50;;;;;21.87;40.44;100981.88;5070961;28;45202;-67
2023/07/14 07:25:00;;;;;;;;;6.25;6.25;;;;;21.88;39.77;100960.38;5061625;28;45339;-68
2023/07/14 07:27:26;;;;;;;;;7.25;6.50;;;;;21.91;40.42;100959.34;5060828;28;46010;-68
2023/07/14 07:29:51;;;;;;;;;5.50;5.50;;;;;21.92;40.04;100959.28;5062185;28;45243;-68
2023/07/14 07:32:17;;;;;;;;;10.00;7.00;;;;;21.95;40.26;100955.56;5062157;28;45390;-68
2023/07/14 07:34:43;;;;;;;;;8.25;5.25;;;;;22.01;39.92;100962.34;5060222;28;47351;-68
2023/07/14 07:37:10;;;;;;;;;7.00;6.50;;;;;22.05;40.14;100956.72;5061957;28;45461;-68
2023/07/14 07:39:36;;;;;;;;;8.00;6.50;;;;;22.08;40.52;100959.22;5061886;28;45399;-68
2023/07/14 07:42:02;;;;;;;;;4.25;3.50;;;;;22.12;40.36;100945.66;5061762;28;45403;-68
2023/07/14 07:44:28;;;;;;;;;5.50;3.75;;;;;22.14;40.51;100943.72;5061873;28;46140;-68
2023/07/14 07:46:53;;;;;;;;;6.00;6.00;;;;;22.21;40.34;100942.44;5060405;28;45179;-68
2023/07/14 07:49:19;;;;;;;;;4.75;4.00;;;;;22.27;39.97;100951.91;5061850;28;45374;-68
2023/07/14 07:51:44;;;;;;;;;6.50;6.00;;;;;22.28;39.91;100948.28;5061548;28;45541;-68
2023/07/14 07:54:09;;;;;;;;;7.25;6.00;;;;;22.33;40.03;100949.72;5061546;28;45212;-68
2023/07/14 07:56:35;;;;;;;;;6.00;4.00;;;;;22.37;40.14;100947.75;5061212;28;48483;-68
2023/07/14 07:59:00;;;;;;;;;7.50;6.75;;;;;22.40;40.09;100935.03;5060296;28;45467;-68
2023/07/14 08:01:27;;;;;;;;;5.00;5.00;;;;;22.43;39.73;100922.41;5061592;28;45236;-67
2023/07/14 08:03:53;;;;;;;;;7.50;6.00;;;;;22.46;39.95;100925.75;5061429;28;46402;-67
2023/07/14 08:06:21;;;;;;;;;7.00;6.00;;;;;22.53;39.94;100918.22;5059729;28;45344;-68
2023/07/14 08:08:47;;;;;;;;;8.50;6.00;;;;;22.55;39.73;100897.56;5067640;28;45336;-67
2023/07/14 08:11:13;;;;;;;;;5.75;5.00;;;;;22.61;40.38;100905.22;5061318;28;45355;-68
2023/07/14 08:13:39;;;;;;;;;6.25;5.50;;;;;22.67;40.02;100904.84;5076709;28;46263;-67
2023/07/14 08:16:05;;;;;;;;;4.75;4.75;;;;;22.71;39.67;100898.31;5081568;28;45463;-67
2023/07/14 08:18:31;;;;;;;;;6.00;5.00;;;;;22.78;39.96;100897.94;5081515;28;45471;-68
2023/07/14 08:20:58;;;;;;;;;5.25;5.00;;;;;22.83;39.90;100893.13;5081467;28;45235;-68
2023/07/14 08:23:24;;;;;;;;;6.25;5.75;;;;;22.88;39.59;100888.38;5080743;28;45334;-67
2023/07/14 08:25:54;;;;;;;;;6.50;5.00;;;;;22.92;39.67;100876.50;5081349;28;45345;-67
2023/07/14 08:28:20;;;;;;;;;6.00;5.00;;;;;23.02;39.94;100891.03;5080203;28;45255;-68
2023/07/14 08:30:47;;;;;;;;;6.00;4.50;;;;;23.05;39.71;100882.78;5081529;28;45295;-68
2023/07/14 08:33:13;;;;;;;;;7.50;4.75;;;;;23.15;39.57;100885.75;5079778;28;46084;-67
2023/07/14 08:35:38;;;;;;;;;5.25;5.00;;;;;23.17;39.47;100883.84;5079797;27;45767;-67
2023/07/14 08:38:03;;;;;;;;;7.00;6.00;;;;;23.28;39.61;100890.31;5081307;28;45422;-68
2023/07/14 08:40:36;;;;;;;;;4.00;4.00;;;;;23.34;39.34;100885.41;5081201;28;45432;-67
2023/07/14 08:43:23;;;;;;;;;5.00;5.00;;;;;23.43;39.30;100883.09;5081086;28;46385;-67
2023/07/14 08:45:59;;;;;;;;;4.50;4.50;;;;;23.48;39.09;100881.84;5081035;27;45410;-67
2023/07/14 08:48:40;;;;;;;;;4.50;4.50;;;;;23.54;39.04;100883.22;5081432;28;45317;-67
2023/07/14 08:51:32;;;;;;;;;6.75;3.75;;;;;23.61;38.84;100875.63;5079410;27;45272;-67
2023/07/14 08:54:11;;;;;;;;;3.75;3.75;;;;;23.63;39.22;100863.81;5079684;28;47002;-67
2023/07/14 08:56:39;;;;;;;;;5.25;5.00;;;;;23.68;39.24;100861.72;5080714;28;45397;-67
2023/07/14 08:59:10;;;;;;;;;5.00;5.00;;;;;23.72;38.87;100867.72;5079703;28;45460;-67
2023/07/14 09:01:47;;;;;;;;;5.00;4.00;;;;;23.78;38.76;100861.94;5081019;28;45255;-66
2023/07/14 09:04:36;;;;;;;;;5.00;5.00;;;;;23.80;38.57;100845.75;5080526;28;47381;-66
2023/07/14 09:07:02;;;;;;;;;3.00;3.00;;;;;23.86;38.12;100839.94;5079271;28;45968;-67
2023/07/14 09:09:34;;;;;;;;;6.50;4.75;;;;;23.91;38.19;100834.28;5071155;28;45316;-66
2023/07/14 09:12:22;;;;;;;;;5.00;4.00;;;;;23.96;38.22;100840.19;5063300;28;45299;-66
2023/07/14 09:14:56;;;;;;;;;5.25;5.25;;;;;23.97;38.05;100834.72;5078734;28;45824;-66
2023/07/14 09:17:27;;;;;;;;;4.00;4.00;;;;;24.00;37.81;100826.47;5080749;28;45304;-66
2023/07/14 09:20:17;;;;;;;;;4.00;4.00;;;;;24.04;38.07;100819.06;5078926;28;45345;-66
2023/07/14 09:22:51;;;;;;;;;2.00;2.00;;;;;24.08;37.73;100814.34;5080467;28;45310;-66
2023/07/14 09:25:52;;;;;;;;;7.50;5.75;;;;;24.10;37.93;100815.97;5080199;28;45410;-66
2023/07/14 09:28:33;;;;;;;;;5.00;5.00;;;;;24.15;37.63;100813.81;5059653;28;45527;-66
2023/07/14 09:31:05;;;;;;;;;5.00;5.00;;;;;24.15;38.00;100797.72;5076001;28;45202;-66
2023/07/14 09:33:39;;;;;;;;;4.75;4.75;;;;;24.22;37.26;100806.19;5075615;28;45851;-66
2023/07/14 09:36:10;;;;;;;;;2.75;2.75;;;;;24.28;37.42;100799.53;5073184;28;45492;-66
2023/07/14 09:38:45;;;;;;;;;4.25;2.00;;;;;24.29;37.58;100788.66;5079158;28;45923;-66
2023/07/14 09:41:15;;;;;;;;;6.25;5.75;;;;;24.34;37.21;100791.88;5078987;28;45461;-66
2023/07/14 09:43:40;;;;;;;;;5.75;3.25;;;;;24.41;37.20;100794.13;5079237;28;45403;-66
2023/07/14 09:46:09;;;;;;;;;4.50;4.00;;;;;24.45;36.96;100800.97;5080122;28;45268;-65
2023/07/14 09:48:42;;;;;;;;;5.00;2.00;;;;;24.51;37.03;100784.44;5080422;28;45226;-66
2023/07/14 09:51:16;;;;;;;;;1.00;1.00;;;;;24.55;36.79;100785.91;5078588;28;45356;-66
2023/07/14 09:53:58;;;;;;;;;3.00;3.00;;;;;24.60;36.51;100785.59;5080186;28;45569;-66
2023/07/14 09:56:31;;;;;;;;;4.75;2.00;;;;;24.60;36.79;100774.84;5078461;28;47182;-65
2023/07/14 09:59:07;;;;;;;;;3.50;3.00;;;;;24.71;36.65;100783.00;5078614;28;45312;-67
2023/07/14 10:01:33;;;;;;;;;3.25;3.25;;;;;24.77;36.70;100779.88;5080183;28;45295;-66
2023/07/14 10:04:19;;;;;;;;;5.00;4.50;;;;;24.81;36.05;100764.38;5079817;28;45351;-66
2023/07/14 10:06:47;;;;;;;;;4.00;3.50;;;;;24.84;36.11;100764.16;5078063;28;47789;-66
2023/07/14 10:09:16;;;;;;;;;3.75;3.50;;;;;24.89;35.97;100762.00;5072729;28;45338;-66
2023/07/14 10:11:50;;;;;;;;;3.00;3.00;;;;;24.97;36.08;100756.06;5059894;28;45280;-66
2023/07/14 10:14:25;;;;;;;;;5.00;3.25;;;;;25.02;35.91;100751.19;5070354;28;45812;-66
2023/07/14 10:16:53;;;;;;;;;3.50;3.25;;;;;25.07;36.12;100742.75;5071037;28;48244;-66
2023/07/14 10:19:20;;;;;;;;;3.00;3.00;;;;;25.14;36.22;100739.50;5059506;28;45534;-66
2023/07/14 10:22:14;;;;;;;;;3.00;3.00;;;;;25.29;36.20;100744.69;5059110;28;45316;-66
2023/07/14 10:24:45;;;;;;;;;3.00;3.00;;;;;25.39;35.65;100728.75;5057557;28;45331;-66
2023/07/14 10:27:21;;;;;;;;;5.00;3.00;;;;;25.51;35.57;100717.03;5059377;28;47256;-66
2023/07/14 10:29:49;;;;;;;;;5.00;2.00;;;;;25.64;35.40;100725.84;5058032;28;45281;-66
2023/07/14 10:32:26;;;;;;;;;4.50;2.75;;;;;25.75;35.96;100722.31;5047585;28;45336;-66
2023/07/14 10:35:08;;;;;;;;;4.00;2.50;;;;;25.95;35.35;100714.50;5057636;28;46003;-66
2023/07/14 10:37:40;;;;;;;;;2.00;2.00;;;;;26.14;35.58;100708.53;5059216;28;45463;-66
2023/07/14 10:40:14;;;;;;;;;2.00;1.25;;;;;26.42;36.17;100708.97;5059268;28;45421;-66
2023/07/14 10:42:55;;;;;;;;;3.00;3.00;;;;;26.69;35.95;100705.84;5059343;28;45283;-65
2023/07/14 10:45:20;;;;;;;;;4.50;4.50;;;;;27.05;35.94;100689.44;5059157;28;45429;-66
2023/07/14 10:47:53;;;;;;;;;3.75;3.00;;;;;27.41;35.19;100680.06;5060736;28;46419;-65
2023/07/14 10:50:26;;;;;;;;;4.25;4.25;;;;;27.85;35.34;100687.09;5061096;28;45465;-66
2023/07/14 10:53:07;;;;;;;;;5.25;4.75;;;;;28.30;35.17;100680.44;5062593;28;45406;-66
2023/07/14 10:55:34;;;;;;;;;3.00;1.25;;;;;28.66;35.65;100657.28;5060913;28;45435;-66
2023/07/14 10:58:08;;;;;;;;;4.25;3.75;;;;;29.10;35.21;100658.72;5061560;28;47260;-65
2023/07/14 11:00:38;;;;;;;;;3.00;3.00;;;;;29.46;35.21;100681.47;5062460;28;45516;-66
2023/07/14 11:03:27;;;;;;;;;2.50;2.50;;;;;29.86;34.85;100665.06;5062824;28;45284;-66
2023/07/14 11:05:55;;;;;;;;;5.00;4.00;;;;;30.21;34.97;100652.66;5062157;28;45494;-66
2023/07/14 11:08:23;;;;;;;;;3.50;3.50;;;;;30.53;34.51;100632.34;5068015;28;46122;-66
2023/07/14 11:11:00;;;;;;;;;2.25;2.25;;;;;30.90;33.83;100634.88;5062733;28;45452;-66
2023/07/14 11:13:44;;;;;;;;;4.75;3.25;;;;;31.29;34.00;100647.22;5075946;28;45491;-66
2023/07/14 11:16:18;;;;;;;;;1.75;1.75;;;;;31.57;33.93;100620.75;5082438;27;45259;-66
2023/07/14 11:18:59;;;;;;;;;3.75;2.00;;;;;31.88;33.43;100632.97;5082344;28;45295;-66
2023/07/14 11:21:38;;;;;;;;;1.25;1.00;;;;;32.15;33.04;100618.28;5080649;28;45178;-66
2023/07/14 11:24:29;;;;;;;;;3.75;3.00;;;;;32.38;32.90;100621.22;5081152;28;45486;-66
2023/07/14 11:27:04;;;;;;;;;3.50;3.00;;;;;32.63;32.20;100613.09;5061357;28;45455;-66
2023/07/14 11:29:40;;;;;;;;;3.00;3.00;;;;;32.83;32.21;100604.59;5062016;28;45265;-66